VYPE weather

Paletwa Airport
Paletwa, Chin State, Burma

Public forecast

Using degrees Celsius for public forecast. Weather courtesy of forecast.io.

METAR (pilot weather report)

Closest report is Shah Amanat International Airport, 83.9 nm (155.4 km) NW. Retrieved 2019/09/15 13:00 UTC (36 minutes ago):

VGEG 151300Z 27004KT 5000 SCT018 SCT100 29/26 Q1006 NOSIG

TAF (pilot weather forecast)

Closest forecast is Shah Amanat International Airport, 83.9 nm (155.4 km) NW. Retrieved 2019/09/15 12:30 UTC (1 hour ago):

TAF TAF VGEG 151100Z 1512/1618 23008KT 5000 HZ FEW018 SCT120 BECMG 1518/1520 18005KT 4000 HZ SCT015 BKN100 BECMG 1605/1607 21010KT 4500 HZ SCT018 SCT110